Terminal Aerodrome Forecast
Issued by NWS

Home | Current Version | Previous Version | Text Only | Print | Product List | Glossary On
Versions: 1 2 3 4 5 6 7 8 9 10 11 12 13 14 15 16 17 18 19 20 21 22 23 24 25 26 27 28 29 30 31 32
000
FTUS45 KBOU 270958 AAC
TAFAPA
TAF AMD
KAPA 270958Z 2710/2806 32006KT P6SM BKN012 OVC040
     FM271300 VRB05KT P6SM SCT010 BKN020
     FM271600 02010KT P6SM SCT025 BKN045
     FM271900 02012KT P6SM VCTS BKN030CB OVC060
      TEMPO 2720/2724 5SM SHRA BKN020
     FM280000 36010KT P6SM SCT030 BKN060=

USA.gov is the U.S. government's official web portal to all federal, state and local government web resources and services.